sensor_id;sensor_type;location;lat;lon;timestamp;temperature;humidity
42333;DHT22;27984;51.476;5.702;2023-05-07T00:00:13;14.80;99.90
42333;DHT22;27984;51.476;5.702;2023-05-07T00:02:40;14.80;99.90
42333;DHT22;27984;51.476;5.702;2023-05-07T00:05:06;14.90;99.90
42333;DHT22;27984;51.476;5.702;2023-05-07T00:07:32;14.90;99.90
42333;DHT22;27984;51.476;5.702;2023-05-07T00:09:58;14.90;99.90
42333;DHT22;27984;51.476;5.702;2023-05-07T00:12:23;14.90;99.90
42333;DHT22;27984;51.476;5.702;2023-05-07T00:14:49;14.90;99.90
42333;DHT22;27984;51.476;5.702;2023-05-07T00:17:14;14.90;99.90
42333;DHT22;27984;51.476;5.702;2023-05-07T00:19:40;14.90;99.90
42333;DHT22;27984;51.476;5.702;2023-05-07T00:22:06;14.80;99.90
42333;DHT22;27984;51.476;5.702;2023-05-07T00:24:32;14.90;99.90
42333;DHT22;27984;51.476;5.702;2023-05-07T00:26:57;14.90;99.90
42333;DHT22;27984;51.476;5.702;2023-05-07T00:29:23;14.90;99.90
42333;DHT22;27984;51.476;5.702;2023-05-07T00:31:49;14.90;99.90
42333;DHT22;27984;51.476;5.702;2023-05-07T00:34:15;15.00;99.90
42333;DHT22;27984;51.476;5.702;2023-05-07T00:36:40;15.00;99.90
42333;DHT22;27984;51.476;5.702;2023-05-07T00:39:06;15.00;99.90
42333;DHT22;27984;51.476;5.702;2023-05-07T00:41:32;15.00;99.90
42333;DHT22;27984;51.476;5.702;2023-05-07T00:43:57;14.90;99.90
42333;DHT22;27984;51.476;5.702;2023-05-07T00:46:23;14.90;99.90
42333;DHT22;27984;51.476;5.702;2023-05-07T00:48:52;14.90;99.90
42333;DHT22;27984;51.476;5.702;2023-05-07T00:51:18;14.70;99.90
42333;DHT22;27984;51.476;5.702;2023-05-07T00:53:45;14.70;99.90
42333;DHT22;27984;51.476;5.702;2023-05-07T00:56:11;14.70;99.90
42333;DHT22;27984;51.476;5.702;2023-05-07T00:58:37;14.60;99.90
42333;DHT22;27984;51.476;5.702;2023-05-07T01:01:03;14.60;99.90
42333;DHT22;27984;51.476;5.702;2023-05-07T01:03:29;14.60;99.90
42333;DHT22;27984;51.476;5.702;2023-05-07T01:05:56;14.60;99.90
42333;DHT22;27984;51.476;5.702;2023-05-07T01:08:23;14.60;99.90
42333;DHT22;27984;51.476;5.702;2023-05-07T01:10:50;14.60;99.90
42333;DHT22;27984;51.476;5.702;2023-05-07T01:13:17;14.60;99.90
42333;DHT22;27984;51.476;5.702;2023-05-07T01:15:43;14.60;99.90
42333;DHT22;27984;51.476;5.702;2023-05-07T01:18:09;14.60;99.90
42333;DHT22;27984;51.476;5.702;2023-05-07T01:20:35;14.60;99.90
42333;DHT22;27984;51.476;5.702;2023-05-07T01:23:01;14.60;99.90
42333;DHT22;27984;51.476;5.702;2023-05-07T01:25:27;14.60;99.90
42333;DHT22;27984;51.476;5.702;2023-05-07T01:27:52;14.60;99.90
42333;DHT22;27984;51.476;5.702;2023-05-07T01:30:20;14.60;99.90
42333;DHT22;27984;51.476;5.702;2023-05-07T01:32:53;14.60;99.90
42333;DHT22;27984;51.476;5.702;2023-05-07T01:35:26;14.60;99.90
42333;DHT22;27984;51.476;5.702;2023-05-07T01:37:53;14.60;99.90
42333;DHT22;27984;51.476;5.702;2023-05-07T01:40:19;14.60;99.90
42333;DHT22;27984;51.476;5.702;2023-05-07T01:42:45;14.60;99.90
42333;DHT22;27984;51.476;5.702;2023-05-07T01:45:11;14.60;99.90
42333;DHT22;27984;51.476;5.702;2023-05-07T01:47:37;14.60;99.90
42333;DHT22;27984;51.476;5.702;2023-05-07T01:50:05;14.50;99.90
42333;DHT22;27984;51.476;5.702;2023-05-07T01:52:31;14.60;99.90
42333;DHT22;27984;51.476;5.702;2023-05-07T01:54:57;14.60;99.90
42333;DHT22;27984;51.476;5.702;2023-05-07T01:57:22;14.60;99.90
42333;DHT22;27984;51.476;5.702;2023-05-07T01:59:48;14.60;99.90
42333;DHT22;27984;51.476;5.702;2023-05-07T02:02:13;14.60;99.90
42333;DHT22;27984;51.476;5.702;2023-05-07T02:04:39;14.60;99.90
42333;DHT22;27984;51.476;5.702;2023-05-07T02:07:04;14.50;99.90
42333;DHT22;27984;51.476;5.702;2023-05-07T02:09:30;14.50;99.90
42333;DHT22;27984;51.476;5.702;2023-05-07T02:11:56;14.50;99.90
42333;DHT22;27984;51.476;5.702;2023-05-07T02:14:21;14.50;99.90
42333;DHT22;27984;51.476;5.702;2023-05-07T02:16:47;14.60;99.90
42333;DHT22;27984;51.476;5.702;2023-05-07T02:19:12;14.50;99.90
42333;DHT22;27984;51.476;5.702;2023-05-07T02:21:38;14.60;99.90
42333;DHT22;27984;51.476;5.702;2023-05-07T02:24:03;14.50;99.90
42333;DHT22;27984;51.476;5.702;2023-05-07T02:26:29;14.50;99.90
42333;DHT22;27984;51.476;5.702;2023-05-07T02:28:54;14.50;99.90
42333;DHT22;27984;51.476;5.702;2023-05-07T02:31:20;14.50;99.90
42333;DHT22;27984;51.476;5.702;2023-05-07T02:33:45;14.40;99.90
42333;DHT22;27984;51.476;5.702;2023-05-07T02:36:11;14.50;99.90
42333;DHT22;27984;51.476;5.702;2023-05-07T02:38:37;14.50;99.90
42333;DHT22;27984;51.476;5.702;2023-05-07T02:41:03;14.50;99.90
42333;DHT22;27984;51.476;5.702;2023-05-07T02:43:28;14.60;99.90
42333;DHT22;27984;51.476;5.702;2023-05-07T02:46:02;14.50;99.90
42333;DHT22;27984;51.476;5.702;2023-05-07T02:48:28;14.50;99.90
42333;DHT22;27984;51.476;5.702;2023-05-07T02:50:53;14.50;99.90
42333;DHT22;27984;51.476;5.702;2023-05-07T02:53:19;14.50;99.90
42333;DHT22;27984;51.476;5.702;2023-05-07T02:55:44;14.50;99.90
42333;DHT22;27984;51.476;5.702;2023-05-07T02:58:10;14.50;99.90
42333;DHT22;27984;51.476;5.702;2023-05-07T03:00:35;14.50;99.90
42333;DHT22;27984;51.476;5.702;2023-05-07T03:03:01;14.50;99.90
42333;DHT22;27984;51.476;5.702;2023-05-07T03:05:26;14.50;99.90
42333;DHT22;27984;51.476;5.702;2023-05-07T03:07:53;14.40;99.90
42333;DHT22;27984;51.476;5.702;2023-05-07T03:10:18;14.40;99.90
42333;DHT22;27984;51.476;5.702;2023-05-07T03:12:44;14.40;99.90
42333;DHT22;27984;51.476;5.702;2023-05-07T03:15:10;14.40;99.90
42333;DHT22;27984;51.476;5.702;2023-05-07T03:17:38;14.40;99.90
42333;DHT22;27984;51.476;5.702;2023-05-07T03:20:03;14.40;99.90
42333;DHT22;27984;51.476;5.702;2023-05-07T03:22:29;14.40;99.90
42333;DHT22;27984;51.476;5.702;2023-05-07T03:24:55;14.40;99.90
42333;DHT22;27984;51.476;5.702;2023-05-07T03:27:20;14.40;99.90
42333;DHT22;27984;51.476;5.702;2023-05-07T03:29:46;14.40;99.90
42333;DHT22;27984;51.476;5.702;2023-05-07T03:32:11;14.40;99.90
42333;DHT22;27984;51.476;5.702;2023-05-07T03:34:37;14.30;99.90
42333;DHT22;27984;51.476;5.702;2023-05-07T03:37:02;14.30;99.90
42333;DHT22;27984;51.476;5.702;2023-05-07T03:39:28;14.30;99.90
42333;DHT22;27984;51.476;5.702;2023-05-07T03:41:53;14.30;99.90
42333;DHT22;27984;51.476;5.702;2023-05-07T03:44:19;14.30;99.90
42333;DHT22;27984;51.476;5.702;2023-05-07T03:46:45;14.30;99.90
42333;DHT22;27984;51.476;5.702;2023-05-07T03:49:10;14.30;99.90
42333;DHT22;27984;51.476;5.702;2023-05-07T03:51:36;14.30;99.90
42333;DHT22;27984;51.476;5.702;2023-05-07T03:54:02;14.30;99.90
42333;DHT22;27984;51.476;5.702;2023-05-07T03:56:27;14.30;99.90
42333;DHT22;27984;51.476;5.702;2023-05-07T03:58:53;14.30;99.90
42333;DHT22;27984;51.476;5.702;2023-05-07T04:01:19;14.40;99.90
42333;DHT22;27984;51.476;5.702;2023-05-07T04:03:44;14.30;99.90
42333;DHT22;27984;51.476;5.702;2023-05-07T04:06:10;14.30;99.90
42333;DHT22;27984;51.476;5.702;2023-05-07T04:08:35;14.30;99.90
42333;DHT22;27984;51.476;5.702;2023-05-07T04:11:01;14.30;99.90
42333;DHT22;27984;51.476;5.702;2023-05-07T04:13:26;14.20;99.90
42333;DHT22;27984;51.476;5.702;2023-05-07T04:15:53;14.30;99.90
42333;DHT22;27984;51.476;5.702;2023-05-07T04:18:19;14.30;99.90
42333;DHT22;27984;51.476;5.702;2023-05-07T04:20:45;14.30;99.90
42333;DHT22;27984;51.476;5.702;2023-05-07T04:23:10;14.30;99.90
42333;DHT22;27984;51.476;5.702;2023-05-07T04:25:36;14.30;99.90
42333;DHT22;27984;51.476;5.702;2023-05-07T04:28:01;14.30;99.90
42333;DHT22;27984;51.476;5.702;2023-05-07T04:30:27;14.40;99.90
42333;DHT22;27984;51.476;5.702;2023-05-07T04:32:52;14.50;99.90
42333;DHT22;27984;51.476;5.702;2023-05-07T04:35:18;14.50;99.90
42333;DHT22;27984;51.476;5.702;2023-05-07T04:37:44;14.50;99.90
42333;DHT22;27984;51.476;5.702;2023-05-07T04:40:10;14.50;99.90
42333;DHT22;27984;51.476;5.702;2023-05-07T04:42:36;14.50;99.90
42333;DHT22;27984;51.476;5.702;2023-05-07T04:45:02;14.50;99.90
42333;DHT22;27984;51.476;5.702;2023-05-07T04:47:27;14.60;99.90
42333;DHT22;27984;51.476;5.702;2023-05-07T04:49:53;14.60;99.90
42333;DHT22;27984;51.476;5.702;2023-05-07T04:52:18;14.60;99.90
42333;DHT22;27984;51.476;5.702;2023-05-07T04:54:44;14.70;99.90
42333;DHT22;27984;51.476;5.702;2023-05-07T04:57:09;14.60;99.90
42333;DHT22;27984;51.476;5.702;2023-05-07T04:59:35;14.70;99.90
42333;DHT22;27984;51.476;5.702;2023-05-07T05:02:00;14.80;99.90
42333;DHT22;27984;51.476;5.702;2023-05-07T05:04:26;14.80;99.90
42333;DHT22;27984;51.476;5.702;2023-05-07T05:06:52;14.90;99.90
42333;DHT22;27984;51.476;5.702;2023-05-07T05:09:18;14.90;99.90
42333;DHT22;27984;51.476;5.702;2023-05-07T05:11:43;15.00;99.90
42333;DHT22;27984;51.476;5.702;2023-05-07T05:14:09;15.00;99.90
42333;DHT22;27984;51.476;5.702;2023-05-07T05:16:34;15.10;99.90
42333;DHT22;27984;51.476;5.702;2023-05-07T05:19:01;15.10;99.90
42333;DHT22;27984;51.476;5.702;2023-05-07T05:21:27;15.00;99.90
42333;DHT22;27984;51.476;5.702;2023-05-07T05:23:53;14.90;99.90
42333;DHT22;27984;51.476;5.702;2023-05-07T05:26:18;15.00;99.90
42333;DHT22;27984;51.476;5.702;2023-05-07T05:28:44;14.90;99.90
42333;DHT22;27984;51.476;5.702;2023-05-07T05:31:10;14.90;99.90
42333;DHT22;27984;51.476;5.702;2023-05-07T05:33:35;15.00;99.90
42333;DHT22;27984;51.476;5.702;2023-05-07T05:36:01;15.00;99.90
42333;DHT22;27984;51.476;5.702;2023-05-07T05:38:26;15.10;99.90
42333;DHT22;27984;51.476;5.702;2023-05-07T05:40:52;15.10;99.90
42333;DHT22;27984;51.476;5.702;2023-05-07T05:43:17;15.20;99.90
42333;DHT22;27984;51.476;5.702;2023-05-07T05:45:43;15.30;99.90
42333;DHT22;27984;51.476;5.702;2023-05-07T05:48:08;15.30;99.90
42333;DHT22;27984;51.476;5.702;2023-05-07T05:50:34;15.30;99.90
42333;DHT22;27984;51.476;5.702;2023-05-07T05:53:01;15.40;99.90
42333;DHT22;27984;51.476;5.702;2023-05-07T05:55:27;15.40;99.90
42333;DHT22;27984;51.476;5.702;2023-05-07T05:57:52;15.60;99.90
42333;DHT22;27984;51.476;5.702;2023-05-07T06:00:18;15.60;99.90
42333;DHT22;27984;51.476;5.702;2023-05-07T06:02:44;15.70;99.90
42333;DHT22;27984;51.476;5.702;2023-05-07T06:05:09;15.70;99.90
42333;DHT22;27984;51.476;5.702;2023-05-07T06:07:35;15.70;99.90
42333;DHT22;27984;51.476;5.702;2023-05-07T06:10:01;15.80;99.90
42333;DHT22;27984;51.476;5.702;2023-05-07T06:12:27;15.90;99.90
42333;DHT22;27984;51.476;5.702;2023-05-07T06:14:52;16.00;99.90
42333;DHT22;27984;51.476;5.702;2023-05-07T06:17:18;16.00;99.90
42333;DHT22;27984;51.476;5.702;2023-05-07T06:19:43;16.10;99.90
42333;DHT22;27984;51.476;5.702;2023-05-07T06:22:09;16.20;99.90
42333;DHT22;27984;51.476;5.702;2023-05-07T06:24:35;16.20;99.90
42333;DHT22;27984;51.476;5.702;2023-05-07T06:27:00;16.30;99.90
42333;DHT22;27984;51.476;5.702;2023-05-07T06:29:26;16.60;99.90
42333;DHT22;27984;51.476;5.702;2023-05-07T06:31:54;16.70;99.90
42333;DHT22;27984;51.476;5.702;2023-05-07T06:34:20;16.90;99.90
42333;DHT22;27984;51.476;5.702;2023-05-07T06:36:46;17.10;99.90
42333;DHT22;27984;51.476;5.702;2023-05-07T06:39:11;17.10;99.90
42333;DHT22;27984;51.476;5.702;2023-05-07T06:41:37;17.20;99.90
42333;DHT22;27984;51.476;5.702;2023-05-07T06:44:03;17.30;99.90
42333;DHT22;27984;51.476;5.702;2023-05-07T06:46:29;17.30;99.90
42333;DHT22;27984;51.476;5.702;2023-05-07T06:48:55;17.30;99.90
42333;DHT22;27984;51.476;5.702;2023-05-07T06:51:22;17.30;99.90
42333;DHT22;27984;51.476;5.702;2023-05-07T06:53:47;17.20;99.90
42333;DHT22;27984;51.476;5.702;2023-05-07T06:56:13;17.20;99.90
42333;DHT22;27984;51.476;5.702;2023-05-07T06:58:38;17.20;99.90
42333;DHT22;27984;51.476;5.702;2023-05-07T07:01:04;17.20;99.90
42333;DHT22;27984;51.476;5.702;2023-05-07T07:03:30;17.30;99.90
42333;DHT22;27984;51.476;5.702;2023-05-07T07:05:55;17.30;99.90
42333;DHT22;27984;51.476;5.702;2023-05-07T07:08:22;17.50;99.90
42333;DHT22;27984;51.476;5.702;2023-05-07T07:10:48;17.50;99.90
42333;DHT22;27984;51.476;5.702;2023-05-07T07:13:13;17.60;99.90
42333;DHT22;27984;51.476;5.702;2023-05-07T07:15:39;17.70;99.90
42333;DHT22;27984;51.476;5.702;2023-05-07T07:18:05;17.80;99.90
42333;DHT22;27984;51.476;5.702;2023-05-07T07:20:31;18.00;99.90
42333;DHT22;27984;51.476;5.702;2023-05-07T07:22:56;18.00;99.90
42333;DHT22;27984;51.476;5.702;2023-05-07T07:25:22;18.20;99.90
42333;DHT22;27984;51.476;5.702;2023-05-07T07:27:47;18.30;99.90
42333;DHT22;27984;51.476;5.702;2023-05-07T07:30:13;18.30;99.90
42333;DHT22;27984;51.476;5.702;2023-05-07T07:32:38;18.40;99.90
42333;DHT22;27984;51.476;5.702;2023-05-07T07:35:04;18.30;99.90
42333;DHT22;27984;51.476;5.702;2023-05-07T07:37:30;18.40;99.90
42333;DHT22;27984;51.476;5.702;2023-05-07T07:39:56;18.30;99.90
42333;DHT22;27984;51.476;5.702;2023-05-07T07:42:21;18.20;99.90
42333;DHT22;27984;51.476;5.702;2023-05-07T07:44:47;18.20;99.90
42333;DHT22;27984;51.476;5.702;2023-05-07T07:47:12;18.20;99.90
42333;DHT22;27984;51.476;5.702;2023-05-07T07:49:38;18.10;99.90
42333;DHT22;27984;51.476;5.702;2023-05-07T07:52:03;18.10;99.90
42333;DHT22;27984;51.476;5.702;2023-05-07T07:54:29;18.10;99.90
42333;DHT22;27984;51.476;5.702;2023-05-07T07:56:55;18.10;99.90
42333;DHT22;27984;51.476;5.702;2023-05-07T07:59:21;18.10;99.90
42333;DHT22;27984;51.476;5.702;2023-05-07T08:01:46;18.10;99.90
42333;DHT22;27984;51.476;5.702;2023-05-07T08:04:13;18.30;99.90
42333;DHT22;27984;51.476;5.702;2023-05-07T08:06:39;18.40;99.90
42333;DHT22;27984;51.476;5.702;2023-05-07T08:09:04;18.70;99.90
42333;DHT22;27984;51.476;5.702;2023-05-07T08:11:30;19.10;99.90
42333;DHT22;27984;51.476;5.702;2023-05-07T08:13:56;19.40;99.90
42333;DHT22;27984;51.476;5.702;2023-05-07T08:16:21;19.90;99.90
42333;DHT22;27984;51.476;5.702;2023-05-07T08:18:47;20.10;99.90
42333;DHT22;27984;51.476;5.702;2023-05-07T08:21:12;20.30;99.90
42333;DHT22;27984;51.476;5.702;2023-05-07T08:23:38;20.40;99.90
42333;DHT22;27984;51.476;5.702;2023-05-07T08:26:04;20.70;99.90
42333;DHT22;27984;51.476;5.702;2023-05-07T08:28:29;21.00;99.90
42333;DHT22;27984;51.476;5.702;2023-05-07T08:30:55;21.30;99.90
42333;DHT22;27984;51.476;5.702;2023-05-07T08:33:22;21.50;99.90
42333;DHT22;27984;51.476;5.702;2023-05-07T08:35:47;21.50;99.90
42333;DHT22;27984;51.476;5.702;2023-05-07T08:38:13;21.60;99.90
42333;DHT22;27984;51.476;5.702;2023-05-07T08:40:39;21.20;99.90
42333;DHT22;27984;51.476;5.702;2023-05-07T08:43:06;21.10;99.90
42333;DHT22;27984;51.476;5.702;2023-05-07T08:45:35;20.80;99.90
42333;DHT22;27984;51.476;5.702;2023-05-07T08:48:08;20.50;99.90
42333;DHT22;27984;51.476;5.702;2023-05-07T08:50:36;20.50;99.90
42333;DHT22;27984;51.476;5.702;2023-05-07T08:53:03;20.60;99.90
42333;DHT22;27984;51.476;5.702;2023-05-07T08:55:29;20.70;99.90
42333;DHT22;27984;51.476;5.702;2023-05-07T08:57:55;20.70;99.90
42333;DHT22;27984;51.476;5.702;2023-05-07T09:00:20;20.80;99.90
42333;DHT22;27984;51.476;5.702;2023-05-07T09:02:46;20.70;99.90
42333;DHT22;27984;51.476;5.702;2023-05-07T09:05:12;20.90;99.90
42333;DHT22;27984;51.476;5.702;2023-05-07T09:07:37;20.90;99.90
42333;DHT22;27984;51.476;5.702;2023-05-07T09:10:04;21.10;99.90
42333;DHT22;27984;51.476;5.702;2023-05-07T09:12:29;21.10;99.90
42333;DHT22;27984;51.476;5.702;2023-05-07T09:14:55;21.00;99.90
42333;DHT22;27984;51.476;5.702;2023-05-07T09:17:21;21.10;99.90
42333;DHT22;27984;51.476;5.702;2023-05-07T09:19:47;21.30;99.90
42333;DHT22;27984;51.476;5.702;2023-05-07T09:22:12;21.60;99.90
42333;DHT22;27984;51.476;5.702;2023-05-07T09:24:38;21.60;99.90
42333;DHT22;27984;51.476;5.702;2023-05-07T09:27:05;21.40;99.90
42333;DHT22;27984;51.476;5.702;2023-05-07T09:29:31;21.60;99.90
42333;DHT22;27984;51.476;5.702;2023-05-07T09:32:06;21.70;99.90
42333;DHT22;27984;51.476;5.702;2023-05-07T09:34:32;21.80;99.90
42333;DHT22;27984;51.476;5.702;2023-05-07T09:37:01;21.50;99.90
42333;DHT22;27984;51.476;5.702;2023-05-07T09:39:41;21.50;99.90
42333;DHT22;27984;51.476;5.702;2023-05-07T09:42:07;21.80;99.90
42333;DHT22;27984;51.476;5.702;2023-05-07T09:44:34;22.00;99.90
42333;DHT22;27984;51.476;5.702;2023-05-07T09:47:00;22.40;99.90
42333;DHT22;27984;51.476;5.702;2023-05-07T09:49:29;22.60;99.90
42333;DHT22;27984;51.476;5.702;2023-05-07T09:51:55;22.80;99.90
42333;DHT22;27984;51.476;5.702;2023-05-07T09:54:22;22.60;99.90
42333;DHT22;27984;51.476;5.702;2023-05-07T09:56:52;22.70;99.90
42333;DHT22;27984;51.476;5.702;2023-05-07T09:59:18;22.80;99.90
42333;DHT22;27984;51.476;5.702;2023-05-07T10:01:45;22.80;99.90
42333;DHT22;27984;51.476;5.702;2023-05-07T10:04:11;23.10;99.90
42333;DHT22;27984;51.476;5.702;2023-05-07T10:06:38;23.40;99.90
42333;DHT22;27984;51.476;5.702;2023-05-07T10:09:04;23.50;99.90
42333;DHT22;27984;51.476;5.702;2023-05-07T10:11:34;23.70;99.90
42333;DHT22;27984;51.476;5.702;2023-05-07T10:14:00;23.70;99.90
42333;DHT22;27984;51.476;5.702;2023-05-07T10:16:29;23.60;99.90
42333;DHT22;27984;51.476;5.702;2023-05-07T10:18:58;23.50;99.90
42333;DHT22;27984;51.476;5.702;2023-05-07T10:21:24;23.70;99.90
42333;DHT22;27984;51.476;5.702;2023-05-07T10:24:03;23.90;99.90
42333;DHT22;27984;51.476;5.702;2023-05-07T10:26:31;24.10;99.90
42333;DHT22;27984;51.476;5.702;2023-05-07T10:29:14;23.90;99.90
42333;DHT22;27984;51.476;5.702;2023-05-07T10:34:42;24.50;99.90
42333;DHT22;27984;51.476;5.702;2023-05-07T10:37:09;24.60;99.90
42333;DHT22;27984;51.476;5.702;2023-05-07T10:39:35;24.90;99.90
42333;DHT22;27984;51.476;5.702;2023-05-07T10:42:11;25.00;99.90
42333;DHT22;27984;51.476;5.702;2023-05-07T10:44:37;24.80;99.90
42333;DHT22;27984;51.476;5.702;2023-05-07T10:47:05;25.00;99.90
42333;DHT22;27984;51.476;5.702;2023-05-07T10:49:31;25.40;99.90
42333;DHT22;27984;51.476;5.702;2023-05-07T10:52:14;25.40;99.90
42333;DHT22;27984;51.476;5.702;2023-05-07T10:54:43;25.40;99.90
42333;DHT22;27984;51.476;5.702;2023-05-07T10:59:57;25.70;99.90
42333;DHT22;27984;51.476;5.702;2023-05-07T11:02:23;25.70;99.90
42333;DHT22;27984;51.476;5.702;2023-05-07T11:05:20;25.80;99.90
42333;DHT22;27984;51.476;5.702;2023-05-07T11:07:56;26.10;99.90
42333;DHT22;27984;51.476;5.702;2023-05-07T11:10:22;26.00;99.90
42333;DHT22;27984;51.476;5.702;2023-05-07T11:12:49;26.00;99.90
42333;DHT22;27984;51.476;5.702;2023-05-07T11:15:32;25.70;99.90
42333;DHT22;27984;51.476;5.702;2023-05-07T11:17:59;25.80;99.90
42333;DHT22;27984;51.476;5.702;2023-05-07T11:20:47;25.50;99.90
42333;DHT22;27984;51.476;5.702;2023-05-07T11:28:28;24.80;99.90
42333;DHT22;27984;51.476;5.702;2023-05-07T11:30:55;24.60;99.90
42333;DHT22;27984;51.476;5.702;2023-05-07T11:33:22;24.40;99.90
42333;DHT22;27984;51.476;5.702;2023-05-07T11:35:48;24.20;99.90
42333;DHT22;27984;51.476;5.702;2023-05-07T11:38:13;24.20;99.90
42333;DHT22;27984;51.476;5.702;2023-05-07T11:40:52;24.00;99.90
42333;DHT22;27984;51.476;5.702;2023-05-07T11:43:18;23.80;99.90
42333;DHT22;27984;51.476;5.702;2023-05-07T11:45:45;23.80;99.90
42333;DHT22;27984;51.476;5.702;2023-05-07T11:48:12;24.00;99.90
42333;DHT22;27984;51.476;5.702;2023-05-07T11:50:50;24.10;99.90
42333;DHT22;27984;51.476;5.702;2023-05-07T11:53:17;24.10;99.90
42333;DHT22;27984;51.476;5.702;2023-05-07T11:55:43;24.10;99.90
42333;DHT22;27984;51.476;5.702;2023-05-07T11:58:12;24.00;99.90
42333;DHT22;27984;51.476;5.702;2023-05-07T12:00:38;23.70;99.90
42333;DHT22;27984;51.476;5.702;2023-05-07T12:03:04;23.40;99.90
42333;DHT22;27984;51.476;5.702;2023-05-07T12:05:30;23.50;99.90
42333;DHT22;27984;51.476;5.702;2023-05-07T12:07:59;23.60;99.90
42333;DHT22;27984;51.476;5.702;2023-05-07T12:10:24;23.70;99.90
42333;DHT22;27984;51.476;5.702;2023-05-07T12:12:50;23.60;99.90
42333;DHT22;27984;51.476;5.702;2023-05-07T12:15:16;23.50;99.90
42333;DHT22;27984;51.476;5.702;2023-05-07T12:17:42;23.50;99.90
42333;DHT22;27984;51.476;5.702;2023-05-07T12:20:09;23.70;99.90
42333;DHT22;27984;51.476;5.702;2023-05-07T12:22:36;23.80;99.90
42333;DHT22;27984;51.476;5.702;2023-05-07T12:25:01;24.10;99.90
42333;DHT22;27984;51.476;5.702;2023-05-07T12:27:28;24.00;99.90
42333;DHT22;27984;51.476;5.702;2023-05-07T12:29:53;24.10;99.90
42333;DHT22;27984;51.476;5.702;2023-05-07T12:32:21;24.10;99.90
42333;DHT22;27984;51.476;5.702;2023-05-07T12:34:49;23.80;99.90
42333;DHT22;27984;51.476;5.702;2023-05-07T12:37:15;23.60;99.90
42333;DHT22;27984;51.476;5.702;2023-05-07T12:39:47;23.50;99.90
42333;DHT22;27984;51.476;5.702;2023-05-07T12:42:19;23.20;99.90
42333;DHT22;27984;51.476;5.702;2023-05-07T12:44:50;23.10;99.90
42333;DHT22;27984;51.476;5.702;2023-05-07T12:47:17;23.00;99.90
42333;DHT22;27984;51.476;5.702;2023-05-07T12:49:43;22.70;99.90
42333;DHT22;27984;51.476;5.702;2023-05-07T12:52:11;22.60;99.90
42333;DHT22;27984;51.476;5.702;2023-05-07T12:54:38;22.40;99.90
42333;DHT22;27984;51.476;5.702;2023-05-07T12:57:08;22.30;99.90
42333;DHT22;27984;51.476;5.702;2023-05-07T12:59:36;22.20;99.90
42333;DHT22;27984;51.476;5.702;2023-05-07T13:02:02;22.00;99.90
42333;DHT22;27984;51.476;5.702;2023-05-07T13:04:28;21.90;99.90
42333;DHT22;27984;51.476;5.702;2023-05-07T13:06:53;21.70;99.90
42333;DHT22;27984;51.476;5.702;2023-05-07T13:09:19;21.30;99.90
42333;DHT22;27984;51.476;5.702;2023-05-07T13:11:44;20.50;99.90
42333;DHT22;27984;51.476;5.702;2023-05-07T13:14:10;20.00;99.90
42333;DHT22;27984;51.476;5.702;2023-05-07T13:16:35;19.60;99.90
42333;DHT22;27984;51.476;5.702;2023-05-07T13:19:01;19.20;99.90
42333;DHT22;27984;51.476;5.702;2023-05-07T13:21:26;19.10;99.90
42333;DHT22;27984;51.476;5.702;2023-05-07T13:23:52;18.70;99.90
42333;DHT22;27984;51.476;5.702;2023-05-07T13:26:18;18.50;99.90
42333;DHT22;27984;51.476;5.702;2023-05-07T13:28:43;18.20;99.90
42333;DHT22;27984;51.476;5.702;2023-05-07T13:31:09;17.80;99.90
42333;DHT22;27984;51.476;5.702;2023-05-07T13:33:34;17.40;99.90
42333;DHT22;27984;51.476;5.702;2023-05-07T13:36:01;17.00;99.90
42333;DHT22;27984;51.476;5.702;2023-05-07T13:38:29;16.90;99.90
42333;DHT22;27984;51.476;5.702;2023-05-07T13:40:54;16.80;99.90
42333;DHT22;27984;51.476;5.702;2023-05-07T13:43:20;16.70;99.90
42333;DHT22;27984;51.476;5.702;2023-05-07T13:45:45;16.70;99.90
42333;DHT22;27984;51.476;5.702;2023-05-07T13:48:11;16.70;99.90
42333;DHT22;27984;51.476;5.702;2023-05-07T13:50:36;16.70;99.90
42333;DHT22;27984;51.476;5.702;2023-05-07T13:53:02;16.70;99.90
42333;DHT22;27984;51.476;5.702;2023-05-07T13:55:29;16.70;99.90
42333;DHT22;27984;51.476;5.702;2023-05-07T13:58:01;16.60;99.90
42333;DHT22;27984;51.476;5.702;2023-05-07T14:00:28;16.60;99.90
42333;DHT22;27984;51.476;5.702;2023-05-07T14:02:55;16.50;99.90
42333;DHT22;27984;51.476;5.702;2023-05-07T14:05:21;16.40;99.90
42333;DHT22;27984;51.476;5.702;2023-05-07T14:07:49;16.50;99.90
42333;DHT22;27984;51.476;5.702;2023-05-07T14:10:17;16.40;99.90
42333;DHT22;27984;51.476;5.702;2023-05-07T14:12:44;16.40;99.90
42333;DHT22;27984;51.476;5.702;2023-05-07T14:15:10;16.50;99.90
42333;DHT22;27984;51.476;5.702;2023-05-07T14:17:35;16.50;99.90
42333;DHT22;27984;51.476;5.702;2023-05-07T14:20:01;16.40;99.90
42333;DHT22;27984;51.476;5.702;2023-05-07T14:22:27;16.50;99.90
42333;DHT22;27984;51.476;5.702;2023-05-07T14:24:52;16.40;99.90
42333;DHT22;27984;51.476;5.702;2023-05-07T14:27:18;16.30;99.90
42333;DHT22;27984;51.476;5.702;2023-05-07T14:29:43;16.30;99.90
42333;DHT22;27984;51.476;5.702;2023-05-07T14:32:10;16.50;99.90
42333;DHT22;27984;51.476;5.702;2023-05-07T14:34:36;16.50;99.90
42333;DHT22;27984;51.476;5.702;2023-05-07T14:37:03;16.50;99.90
42333;DHT22;27984;51.476;5.702;2023-05-07T14:39:28;16.50;99.90
42333;DHT22;27984;51.476;5.702;2023-05-07T14:41:54;16.70;99.90
42333;DHT22;27984;51.476;5.702;2023-05-07T14:44:21;16.80;99.90
42333;DHT22;27984;51.476;5.702;2023-05-07T14:46:47;17.00;99.90
42333;DHT22;27984;51.476;5.702;2023-05-07T14:49:14;17.20;99.90
42333;DHT22;27984;51.476;5.702;2023-05-07T14:51:43;17.30;99.90
42333;DHT22;27984;51.476;5.702;2023-05-07T14:54:09;17.30;99.90
42333;DHT22;27984;51.476;5.702;2023-05-07T14:56:35;17.50;99.90
42333;DHT22;27984;51.476;5.702;2023-05-07T14:59:02;17.70;99.90
42333;DHT22;27984;51.476;5.702;2023-05-07T15:01:28;17.80;99.90
42333;DHT22;27984;51.476;5.702;2023-05-07T15:03:54;18.00;99.90
42333;DHT22;27984;51.476;5.702;2023-05-07T15:06:20;18.20;99.90
42333;DHT22;27984;51.476;5.702;2023-05-07T15:08:46;18.40;99.90
42333;DHT22;27984;51.476;5.702;2023-05-07T15:11:11;18.30;99.90
42333;DHT22;27984;51.476;5.702;2023-05-07T15:13:37;18.20;99.90
42333;DHT22;27984;51.476;5.702;2023-05-07T15:16:02;18.10;99.90
42333;DHT22;27984;51.476;5.702;2023-05-07T15:18:28;18.20;99.90
42333;DHT22;27984;51.476;5.702;2023-05-07T15:20:54;18.20;99.90
42333;DHT22;27984;51.476;5.702;2023-05-07T15:23:20;18.20;99.90
42333;DHT22;27984;51.476;5.702;2023-05-07T15:25:46;18.20;99.90
42333;DHT22;27984;51.476;5.702;2023-05-07T15:28:11;18.30;99.90
42333;DHT22;27984;51.476;5.702;2023-05-07T15:30:37;18.30;99.90
42333;DHT22;27984;51.476;5.702;2023-05-07T15:33:02;18.30;99.90
42333;DHT22;27984;51.476;5.702;2023-05-07T15:35:28;18.30;99.90